Terminal Aerodrome Forecast
Issued by NWS

Home | Current Version | Previous Version | Text Only | Print | Product List | Glossary On
Versions: 1 2 3 4 5 6 7 8 9 10 11 12 13 14 15 16 17 18 19 20 21 22 23 24 25 26 27 28
001
FTUS45 KBOI 251123
TAFMYL
TAF
KMYL 251123Z 2512/2612 VRB03KT P6SM VCFG SCT250
     FM252100 32006KT P6SM BKN200
     FM260200 VRB03KT P6SM OVC100=

USA.gov is the U.S. government's official web portal to all federal, state and local government web resources and services.